Time;durP1;ratioP1;P1;durP2;ratioP2;P2;SDS_P1;SDS_P2;PMS_P1;PMS_P2;Temp;Humidity;BMP_temperature;BMP_pressure;BME280_temperature;BME280_humidity;BME280_pressure;Samples;Min_cycle;Max_cycle;Signal;HPM_P1;HPM_P2
2022/03/13 00:00:28;;;;;;;18.83;15.05;;;7.80;99.90;;;;;;5064835;28;20128;-81
2022/03/13 00:02:55;;;;;;;19.52;13.63;;;7.80;99.90;;;;;;5065389;28;20463;-81
2022/03/13 00:05:22;;;;;;;18.98;14.85;;;7.80;99.90;;;;;;5066666;28;20040;-81
2022/03/13 00:07:50;;;;;;;22.98;15.48;;;7.80;99.90;;;;;;5056750;28;20044;-81
2022/03/13 00:10:27;;;;;;;23.58;12.55;;;7.80;99.90;;;;;;5054355;28;20036;-81
2022/03/13 00:12:54;;;;;;;18.75;12.93;;;7.80;99.90;;;;;;5067240;28;20052;-79
2022/03/13 00:15:35;;;;;;;21.35;15.52;;;7.80;99.90;;;;;;5056411;28;20041;-79
2022/03/13 00:18:01;;;;;;;18.33;13.95;;;7.80;99.90;;;;;;5041278;28;20047;-80
2022/03/13 00:20:27;;;;;;;23.35;14.93;;;7.80;99.90;;;;;;5068563;28;20037;-77
2022/03/13 00:22:54;;;;;;;19.92;15.65;;;7.80;99.90;;;;;;5069195;28;20052;-80
2022/03/13 00:25:20;;;;;;;17.48;13.25;;;7.80;99.90;;;;;;5066325;28;20123;-80
2022/03/13 00:27:47;;;;;;;19.05;14.35;;;7.80;99.90;;;;;;5068497;28;20490;-82
2022/03/13 00:30:12;;;;;;;17.65;13.55;;;7.80;99.90;;;;;;5065657;28;20041;-80
2022/03/13 00:32:38;;;;;;;18.35;15.70;;;7.80;99.90;;;;;;5070681;28;20394;-81
2022/03/13 00:35:04;;;;;;;21.38;15.23;;;7.80;99.90;;;;;;5061539;28;20045;-82
2022/03/13 00:37:30;;;;;;;23.92;16.33;;;7.70;99.90;;;;;;5050516;28;20048;-81
2022/03/13 00:39:56;;;;;;;21.55;17.38;;;7.70;99.90;;;;;;5061421;28;20036;-81
2022/03/13 00:42:23;;;;;;;18.95;14.30;;;7.80;99.90;;;;;;5062990;28;20470;-82
2022/03/13 00:44:49;;;;;;;20.40;14.90;;;7.80;99.90;;;;;;5064043;28;20453;-83
2022/03/13 00:47:18;;;;;;;20.88;14.90;;;7.80;99.90;;;;;;5069826;28;20718;-81
2022/03/13 00:49:45;;;;;;;23.45;16.05;;;7.70;99.90;;;;;;5069189;28;20120;-79
2022/03/13 00:52:10;;;;;;;21.25;14.52;;;7.70;99.90;;;;;;5071037;28;20388;-80
2022/03/13 00:54:36;;;;;;;20.42;14.68;;;7.80;99.90;;;;;;5069673;28;20051;-81
2022/03/13 00:57:01;;;;;;;16.73;14.70;;;7.70;99.90;;;;;;5062000;28;20407;-80
2022/03/13 00:59:27;;;;;;;18.67;14.88;;;7.80;99.90;;;;;;5070340;28;20117;-80
2022/03/13 01:01:53;;;;;;;22.48;15.88;;;7.70;99.90;;;;;;5066832;28;20039;-81
2022/03/13 01:04:18;;;;;;;21.67;15.82;;;7.80;99.90;;;;;;5060423;28;20412;-80
2022/03/13 01:06:46;;;;;;;22.60;17.17;;;7.80;99.90;;;;;;5063247;28;20044;-81
2022/03/13 01:09:12;;;;;;;19.20;14.40;;;7.80;99.90;;;;;;5055353;28;20464;-81
2022/03/13 01:11:37;;;;;;;17.92;13.05;;;7.80;99.90;;;;;;5061138;28;20123;-80
2022/03/13 01:14:04;;;;;;;20.58;15.63;;;7.80;99.90;;;;;;5071852;28;20131;-80
2022/03/13 01:16:35;;;;;;;27.75;19.25;;;7.90;99.90;;;;;;5060832;28;20072;-80
2022/03/13 01:19:01;;;;;;;18.42;14.50;;;7.90;99.90;;;;;;5063695;28;20045;-81
2022/03/13 01:21:28;;;;;;;19.17;14.88;;;7.90;99.90;;;;;;5052675;28;20128;-78
2022/03/13 01:24:14;;;;;;;21.30;15.27;;;8.00;99.90;;;;;;5070866;28;20052;-81
2022/03/13 01:26:40;;;;;;;19.17;14.90;;;8.10;99.90;;;;;;5070935;28;20048;-80
2022/03/13 01:29:14;;;;;;;16.23;13.35;;;8.20;99.90;;;;;;5066463;28;20526;-80
2022/03/13 01:31:44;;;;;;;20.13;15.00;;;8.10;99.90;;;;;;5056116;28;20068;-80
2022/03/13 01:34:12;;;;;;;19.55;15.18;;;8.20;99.90;;;;;;5056623;28;20055;-81
2022/03/13 01:36:38;;;;;;;22.77;15.05;;;8.20;99.90;;;;;;5069584;28;20128;-80
2022/03/13 01:39:06;;;;;;;19.75;14.30;;;8.20;99.90;;;;;;5052174;28;20438;-80
2022/03/13 01:41:35;;;;;;;20.48;14.65;;;8.10;99.90;;;;;;5061431;28;20124;-81
2022/03/13 01:44:02;;;;;;;22.23;16.40;;;8.10;99.90;;;;;;5066505;28;20037;-79
2022/03/13 01:46:28;;;;;;;18.83;13.70;;;8.20;99.90;;;;;;5056551;28;20064;-79
2022/03/13 01:49:07;;;;;;;19.50;14.10;;;8.00;99.90;;;;;;5061243;28;20083;-80
2022/03/13 01:51:34;;;;;;;18.50;13.55;;;8.20;99.90;;;;;;5069690;28;20098;-78
2022/03/13 01:54:02;;;;;;;17.67;14.63;;;8.20;99.90;;;;;;5065642;28;20040;-80
2022/03/13 01:56:30;;;;;;;21.95;14.85;;;8.20;99.90;;;;;;5063141;28;20572;-80
2022/03/13 01:58:56;;;;;;;16.27;13.45;;;8.10;99.90;;;;;;5056791;28;20529;-76
2022/03/13 02:01:24;;;;;;;25.05;16.90;;;8.20;99.90;;;;;;5055061;28;20195;-81
2022/03/13 02:03:50;;;;;;;17.63;14.65;;;8.10;99.90;;;;;;5062339;28;20470;-80
2022/03/13 02:06:16;;;;;;;19.23;14.73;;;8.10;99.90;;;;;;5061488;28;20072;-81
2022/03/13 02:08:44;;;;;;;18.58;14.75;;;8.10;99.90;;;;;;5063242;28;20032;-80
2022/03/13 02:11:14;;;;;;;23.80;15.38;;;8.10;99.90;;;;;;5063182;28;20079;-81
2022/03/13 02:13:40;;;;;;;19.92;14.82;;;8.10;99.90;;;;;;5059404;28;20041;-80
2022/03/13 02:16:07;;;;;;;19.55;14.30;;;8.10;99.90;;;;;;5055974;28;20047;-81
2022/03/13 02:18:32;;;;;;;22.13;15.48;;;8.10;99.90;;;;;;5073119;28;20086;-80
2022/03/13 02:20:58;;;;;;;22.63;15.80;;;8.10;99.90;;;;;;5072723;28;20037;-80
2022/03/13 02:23:26;;;;;;;19.67;15.13;;;8.10;99.90;;;;;;5061295;28;20045;-80
2022/03/13 02:25:56;;;;;;;19.63;14.98;;;8.10;99.90;;;;;;5066454;28;20044;-80
2022/03/13 02:28:25;;;;;;;20.35;14.90;;;8.10;99.90;;;;;;5056276;28;20040;-80
2022/03/13 02:30:53;;;;;;;27.27;14.90;;;8.10;99.90;;;;;;5054970;28;20056;-80
2022/03/13 02:33:21;;;;;;;18.02;14.63;;;8.10;99.90;;;;;;5067892;28;20601;-81
2022/03/13 02:35:59;;;;;;;19.60;15.25;;;8.10;99.90;;;;;;5069545;28;20078;-79
2022/03/13 02:38:27;;;;;;;21.73;15.52;;;8.00;99.90;;;;;;5055415;28;20056;-79
2022/03/13 02:40:54;;;;;;;21.48;15.90;;;8.00;99.90;;;;;;5061202;28;20047;-80
2022/03/13 02:43:19;;;;;;;17.60;14.68;;;8.10;99.90;;;;;;5065507;28;20402;-79
2022/03/13 02:45:45;;;;;;;19.95;15.55;;;8.10;99.90;;;;;;5053855;28;20399;-80
2022/03/13 02:48:12;;;;;;;17.65;13.82;;;8.10;99.90;;;;;;5054107;28;20049;-79
2022/03/13 02:50:39;;;;;;;19.15;14.73;;;8.10;99.90;;;;;;5050611;28;20088;-79
2022/03/13 02:53:06;;;;;;;21.13;15.70;;;8.10;99.90;;;;;;5053355;28;20033;-80
2022/03/13 02:55:32;;;;;;;22.05;16.15;;;8.20;99.90;;;;;;5067060;28;20036;-79
2022/03/13 02:57:58;;;;;;;17.40;14.63;;;8.10;99.90;;;;;;5065507;28;20032;-79
2022/03/13 03:00:50;;;;;;;21.02;15.55;;;8.20;99.90;;;;;;5082872;28;20033;-80
2022/03/13 03:03:17;;;;;;;20.23;15.15;;;8.30;99.90;;;;;;5064977;28;20048;-79
2022/03/13 03:05:43;;;;;;;22.60;13.90;;;8.20;99.90;;;;;;5050525;28;20048;-80
2022/03/13 03:08:09;;;;;;;21.40;16.83;;;8.20;99.90;;;;;;5061466;28;20037;-80
2022/03/13 03:10:36;;;;;;;18.50;13.95;;;8.30;99.90;;;;;;5064869;28;20490;-80
2022/03/13 03:13:02;;;;;;;21.08;14.93;;;8.30;99.90;;;;;;5061674;28;20077;-80
2022/03/13 03:15:28;;;;;;;19.80;14.75;;;8.30;99.90;;;;;;5066820;28;20145;-80
2022/03/13 03:17:54;;;;;;;18.05;14.30;;;8.30;99.90;;;;;;5071233;28;20510;-80
2022/03/13 03:20:20;;;;;;;22.08;16.65;;;8.20;99.90;;;;;;5069047;28;20045;-81
2022/03/13 03:22:47;;;;;;;19.55;13.88;;;8.30;99.90;;;;;;5075680;28;20070;-81
2022/03/13 03:25:12;;;;;;;17.10;13.90;;;8.20;99.90;;;;;;5076030;28;20124;-80
2022/03/13 03:27:41;;;;;;;18.67;14.55;;;8.20;99.90;;;;;;5073479;28;20064;-79
2022/03/13 03:30:08;;;;;;;20.15;13.75;;;8.20;99.90;;;;;;5062268;28;20041;-81
2022/03/13 03:32:33;;;;;;;20.25;15.02;;;8.20;99.90;;;;;;5072503;28;20043;-80
2022/03/13 03:34:59;;;;;;;17.73;13.40;;;8.20;99.90;;;;;;5065543;28;20049;-80
2022/03/13 03:37:25;;;;;;;17.70;13.98;;;8.20;99.90;;;;;;5069117;28;20037;-80
2022/03/13 03:39:50;;;;;;;22.23;14.68;;;8.30;99.90;;;;;;5068093;28;20048;-81
2022/03/13 03:42:16;;;;;;;20.15;13.48;;;8.30;99.90;;;;;;5049070;28;20040;-82
2022/03/13 03:44:42;;;;;;;17.27;12.70;;;8.30;99.90;;;;;;5062926;28;20102;-82
2022/03/13 03:47:07;;;;;;;20.92;14.45;;;8.30;99.90;;;;;;5067154;28;20053;-82
2022/03/13 03:49:34;;;;;;;17.10;12.98;;;8.30;99.90;;;;;;5062600;28;20163;-82
2022/03/13 03:52:00;;;;;;;16.20;13.70;;;8.30;99.90;;;;;;5061299;28;20053;-80
2022/03/13 03:54:25;;;;;;;16.60;13.07;;;8.30;99.90;;;;;;5063384;28;20124;-79
2022/03/13 03:56:51;;;;;;;16.13;13.43;;;8.30;99.90;;;;;;5057697;28;20215;-82
2022/03/13 03:59:19;;;;;;;16.50;13.10;;;8.20;99.90;;;;;;5065044;28;20489;-81
2022/03/13 04:01:45;;;;;;;15.35;11.75;;;8.30;99.90;;;;;;5066968;28;20127;-81
2022/03/13 04:04:11;;;;;;;18.83;13.80;;;8.30;99.90;;;;;;5072077;28;20475;-82
2022/03/13 04:06:38;;;;;;;16.85;13.10;;;8.20;99.90;;;;;;5069690;28;20036;-81
2022/03/13 04:09:08;;;;;;;14.90;11.52;;;8.20;99.90;;;;;;5071515;28;20461;-81
2022/03/13 04:11:34;;;;;;;16.33;12.77;;;8.10;99.90;;;;;;5059181;28;20072;-82
2022/03/13 04:14:00;;;;;;;17.13;12.63;;;8.00;99.90;;;;;;5073018;28;20044;-81
2022/03/13 04:16:25;;;;;;;16.27;12.98;;;7.90;99.90;;;;;;5055361;28;20044;-79
2022/03/13 04:18:51;;;;;;;15.13;12.32;;;7.80;99.90;;;;;;5054362;28;20477;-79
2022/03/13 04:21:17;;;;;;;22.42;14.98;;;7.70;99.90;;;;;;5058096;28;20056;-80
2022/03/13 04:23:43;;;;;;;17.60;13.45;;;7.60;99.90;;;;;;5072109;28;20059;-80
2022/03/13 04:26:09;;;;;;;24.10;15.88;;;7.50;99.90;;;;;;5068657;28;20048;-80
2022/03/13 04:28:35;;;;;;;19.13;15.18;;;7.50;99.90;;;;;;5071229;28;20040;-79
2022/03/13 04:31:00;;;;;;;22.38;16.77;;;7.50;99.90;;;;;;5068732;28;20502;-79
2022/03/13 04:33:33;;;;;;;21.17;15.38;;;7.50;99.90;;;;;;5058216;28;20041;-79
2022/03/13 04:36:00;;;;;;;22.50;16.38;;;7.40;99.90;;;;;;5070316;28;20052;-80
2022/03/13 04:38:27;;;;;;;20.58;16.52;;;7.40;99.90;;;;;;5050980;28;20044;-79
2022/03/13 04:40:57;;;;;;;22.33;16.70;;;7.40;99.90;;;;;;5066856;28;20049;-80
2022/03/13 04:43:23;;;;;;;22.10;15.80;;;7.40;99.90;;;;;;5071622;28;20513;-80
2022/03/13 04:45:50;;;;;;;24.23;16.95;;;7.40;99.90;;;;;;5054693;28;20380;-80
2022/03/13 04:48:17;;;;;;;23.48;16.45;;;7.30;99.90;;;;;;5071960;28;20127;-80
2022/03/13 04:50:43;;;;;;;20.88;16.38;;;7.30;99.90;;;;;;5071385;28;20051;-80
2022/03/13 04:53:09;;;;;;;20.70;15.88;;;7.30;99.90;;;;;;5069878;28;20127;-80
2022/03/13 04:55:34;;;;;;;20.65;15.65;;;7.30;99.90;;;;;;5065932;28;20136;-79
2022/03/13 04:58:00;;;;;;;25.10;18.10;;;7.20;99.90;;;;;;5059668;28;20475;-80
2022/03/13 05:00:27;;;;;;;19.85;14.77;;;7.20;99.90;;;;;;5064963;28;20040;-79
2022/03/13 05:02:54;;;;;;;21.83;17.70;;;7.20;99.90;;;;;;5052805;28;20067;-81
2022/03/13 05:05:21;;;;;;;20.98;16.13;;;7.20;99.90;;;;;;5057841;28;20041;-81
2022/03/13 05:07:46;;;;;;;23.17;16.60;;;7.20;99.90;;;;;;5063737;28;20406;-82
2022/03/13 05:10:13;;;;;;;20.27;14.93;;;7.10;99.90;;;;;;5071015;28;20040;-79
2022/03/13 05:12:38;;;;;;;22.60;17.63;;;7.10;99.90;;;;;;5064152;28;20036;-81
2022/03/13 05:15:04;;;;;;;22.90;16.33;;;7.10;99.90;;;;;;5062003;28;20048;-79
2022/03/13 05:17:30;;;;;;;22.63;17.60;;;7.10;99.90;;;;;;5065500;28;20107;-81
2022/03/13 05:19:55;;;;;;;23.17;15.73;;;7.00;99.90;;;;;;5067777;28;20130;-78
2022/03/13 05:22:21;;;;;;;18.60;15.15;;;7.00;99.90;;;;;;5071207;28;20040;-78
2022/03/13 05:24:47;;;;;;;24.45;17.58;;;7.00;99.90;;;;;;5067017;28;20513;-75
2022/03/13 05:27:13;;;;;;;20.60;16.23;;;7.10;99.90;;;;;;5066515;28;20044;-76
2022/03/13 05:29:39;;;;;;;21.92;16.75;;;7.10;99.90;;;;;;5061030;28;20079;-79
2022/03/13 05:32:05;;;;;;;23.65;16.08;;;7.10;99.90;;;;;;5066829;28;20540;-79
2022/03/13 05:34:30;;;;;;;20.63;15.77;;;7.10;99.90;;;;;;5066265;28;20040;-79
2022/03/13 05:36:56;;;;;;;22.23;15.32;;;7.10;99.90;;;;;;5064448;28;20090;-78
2022/03/13 05:39:21;;;;;;;20.45;16.98;;;7.00;99.90;;;;;;5065279;28;20048;-79
2022/03/13 05:41:48;;;;;;;28.65;18.95;;;7.10;99.90;;;;;;5056898;28;20592;-79
2022/03/13 05:44:14;;;;;;;22.42;16.15;;;7.00;99.90;;;;;;5067901;28;20048;-79
2022/03/13 05:46:40;;;;;;;24.92;16.83;;;7.00;99.90;;;;;;5054975;28;20143;-78
2022/03/13 05:49:08;;;;;;;21.08;16.20;;;7.00;99.90;;;;;;5071820;28;20105;-79
2022/03/13 05:51:42;;;;;;;18.75;14.80;;;7.00;99.90;;;;;;5068590;28;20033;-79
2022/03/13 05:54:09;;;;;;;27.77;16.27;;;7.00;99.90;;;;;;5066778;28;20172;-80
2022/03/13 05:56:36;;;;;;;29.23;18.10;;;7.00;99.90;;;;;;5069162;28;20048;-81
2022/03/13 05:59:01;;;;;;;20.27;16.02;;;7.00;99.90;;;;;;5071895;28;20102;-82
2022/03/13 06:01:27;;;;;;;17.95;14.57;;;7.00;99.90;;;;;;5066999;28;20041;-79
2022/03/13 06:03:53;;;;;;;23.58;16.58;;;7.00;99.90;;;;;;5066912;28;20045;-80
2022/03/13 06:06:20;;;;;;;23.27;16.48;;;7.00;99.90;;;;;;5066792;28;20441;-82
2022/03/13 06:08:46;;;;;;;22.27;17.00;;;7.10;99.90;;;;;;5071902;28;20067;-81
2022/03/13 06:11:11;;;;;;;23.83;17.65;;;7.20;99.90;;;;;;5064152;28;20040;-79
2022/03/13 06:13:37;;;;;;;21.20;16.90;;;7.10;99.90;;;;;;5059813;28;20491;-80
2022/03/13 06:16:03;;;;;;;23.98;17.25;;;7.00;99.90;;;;;;5063475;28;20117;-82
2022/03/13 06:18:28;;;;;;;19.92;15.85;;;7.00;99.90;;;;;;5063705;28;20037;-79
2022/03/13 06:20:54;;;;;;;25.02;17.75;;;7.00;99.90;;;;;;5059171;28;20036;-79
2022/03/13 06:23:20;;;;;;;23.17;17.80;;;7.00;99.90;;;;;;5060040;28;20491;-78
2022/03/13 06:25:46;;;;;;;23.73;16.95;;;6.90;99.90;;;;;;5071163;28;20051;-79
2022/03/13 06:28:12;;;;;;;22.25;17.65;;;6.90;99.90;;;;;;5066474;28;20063;-81
2022/03/13 06:30:38;;;;;;;19.90;16.10;;;6.90;99.90;;;;;;5068747;28;20051;-80
2022/03/13 06:33:04;;;;;;;21.98;17.35;;;6.90;99.90;;;;;;5070048;28;20029;-79
2022/03/13 06:35:30;;;;;;;22.83;15.68;;;6.90;99.90;;;;;;5068505;28;20051;-82
2022/03/13 06:37:56;;;;;;;23.33;17.20;;;6.80;99.90;;;;;;5068753;28;20044;-79
2022/03/13 06:40:23;;;;;;;21.95;17.38;;;6.80;99.90;;;;;;5071699;28;20049;-84
2022/03/13 06:42:51;;;;;;;23.95;16.15;;;6.90;99.90;;;;;;5057786;28;20040;-80
2022/03/13 06:45:18;;;;;;;21.70;16.08;;;6.80;99.90;;;;;;5057333;28;20055;-82
2022/03/13 06:47:46;;;;;;;24.88;18.05;;;6.80;99.90;;;;;;5052007;28;20478;-81
2022/03/13 06:50:17;;;;;;;18.70;15.93;;;6.80;99.90;;;;;;5069040;28;20055;-82
2022/03/13 06:52:46;;;;;;;27.33;16.60;;;6.70;99.90;;;;;;5067536;28;20052;-79
2022/03/13 06:55:13;;;;;;;22.20;16.07;;;6.70;99.90;;;;;;5070215;28;20174;-81
2022/03/13 06:57:40;;;;;;;22.63;15.77;;;6.80;99.90;;;;;;5068728;28;20068;-82
2022/03/13 07:00:06;;;;;;;21.80;15.55;;;6.70;99.90;;;;;;5066879;28;20041;-82
2022/03/13 07:02:32;;;;;;;23.73;16.52;;;6.80;99.90;;;;;;5065057;28;20072;-80
2022/03/13 07:04:58;;;;;;;22.52;15.30;;;6.70;99.90;;;;;;5068004;28;20121;-80
2022/03/13 07:07:23;;;;;;;17.67;14.30;;;6.70;99.90;;;;;;5069527;28;20068;-81
2022/03/13 07:09:49;;;;;;;22.08;16.40;;;6.70;99.90;;;;;;5068966;28;20044;-81
2022/03/13 07:12:17;;;;;;;21.50;15.95;;;6.70;99.90;;;;;;5073286;28;20048;-79
2022/03/13 07:14:46;;;;;;;24.17;17.15;;;6.80;99.90;;;;;;5070761;28;20056;-82
2022/03/13 07:17:13;;;;;;;21.97;16.60;;;6.80;99.90;;;;;;5073048;28;20111;-80
2022/03/13 07:19:41;;;;;;;21.23;15.60;;;6.90;99.90;;;;;;5056258;28;20451;-81
2022/03/13 07:22:09;;;;;;;22.10;15.35;;;6.80;99.90;;;;;;5071331;28;20032;-79
2022/03/13 07:24:35;;;;;;;19.42;13.45;;;6.90;99.90;;;;;;5087314;28;20044;-78
2022/03/13 07:27:00;;;;;;;20.90;15.05;;;6.90;99.90;;;;;;5076676;28;20071;-84
2022/03/13 07:29:26;;;;;;;20.65;15.25;;;6.90;99.90;;;;;;5075499;28;20100;-79
2022/03/13 07:31:52;;;;;;;17.55;13.55;;;7.00;99.90;;;;;;5068601;28;20055;-80
2022/03/13 07:34:18;;;;;;;21.00;15.15;;;7.00;99.90;;;;;;5074357;28;20049;-82
2022/03/13 07:36:43;;;;;;;17.40;14.55;;;7.00;99.90;;;;;;5072147;28;20059;-82
2022/03/13 07:39:09;;;;;;;19.98;14.98;;;7.10;99.90;;;;;;5072552;28;20048;-80
2022/03/13 07:41:34;;;;;;;19.73;14.48;;;7.10;99.90;;;;;;5073952;28;20043;-82
2022/03/13 07:44:03;;;;;;;20.20;15.43;;;7.20;99.90;;;;;;5072268;28;20071;-80
2022/03/13 07:46:29;;;;;;;18.00;14.40;;;7.20;99.90;;;;;;5072768;28;20110;-83
2022/03/13 07:48:55;;;;;;;19.73;13.85;;;7.20;99.90;;;;;;5059200;28;20045;-78
2022/03/13 07:51:21;;;;;;;19.70;14.15;;;7.30;99.90;;;;;;5069997;28;20505;-83
2022/03/13 07:53:46;;;;;;;21.55;15.35;;;7.40;99.90;;;;;;5069202;28;20044;-80
2022/03/13 07:56:12;;;;;;;17.48;12.88;;;7.50;99.90;;;;;;5072159;28;20056;-82
2022/03/13 07:58:37;;;;;;;20.40;13.85;;;7.60;99.90;;;;;;5072840;28;20829;-81
2022/03/13 08:01:03;;;;;;;18.30;13.68;;;7.60;99.90;;;;;;5071023;28;20048;-81
2022/03/13 08:03:34;;;;;;;16.13;12.35;;;7.60;99.90;;;;;;5072952;28;20040;-80
2022/03/13 08:06:00;;;;;;;18.30;12.70;;;7.60;99.90;;;;;;5061232;28;20070;-81
2022/03/13 08:08:25;;;;;;;19.05;13.68;;;7.60;99.90;;;;;;5072494;28;20053;-79
2022/03/13 08:10:51;;;;;;;17.35;12.70;;;7.70;99.90;;;;;;5072726;28;20135;-81
2022/03/13 08:13:17;;;;;;;15.38;12.05;;;7.70;99.90;;;;;;5067997;28;20063;-82
2022/03/13 08:15:42;;;;;;;15.30;12.68;;;7.80;99.90;;;;;;5057309;28;20041;-82
2022/03/13 08:18:09;;;;;;;22.08;12.68;;;7.90;99.90;;;;;;5061483;28;20128;-84
2022/03/13 08:20:35;;;;;;;16.63;12.27;;;7.90;99.90;;;;;;5087805;28;20041;-83
2022/03/13 08:23:01;;;;;;;17.38;14.05;;;8.00;99.90;;;;;;5071297;28;20048;-82
2022/03/13 08:25:27;;;;;;;15.32;12.00;;;8.10;99.90;;;;;;5064857;28;20069;-79
2022/03/13 08:27:52;;;;;;;18.52;13.20;;;8.20;99.90;;;;;;5041054;28;20037;-83
2022/03/13 08:30:18;;;;;;;17.60;11.93;;;8.20;99.90;;;;;;5073595;28;20042;-81
2022/03/13 08:32:44;;;;;;;19.48;13.38;;;8.30;99.90;;;;;;5066471;28;21606;-82
2022/03/13 08:35:10;;;;;;;15.48;11.65;;;8.30;99.90;;;;;;5068667;28;20094;-82
2022/03/13 08:37:36;;;;;;;16.92;12.63;;;8.40;99.90;;;;;;5078541;28;20045;-80
2022/03/13 08:40:05;;;;;;;16.20;12.00;;;8.60;99.90;;;;;;5083776;28;20075;-82
2022/03/13 08:42:32;;;;;;;16.50;12.67;;;8.70;99.90;;;;;;5078348;28;20036;-82
2022/03/13 08:44:59;;;;;;;16.13;12.70;;;8.90;99.90;;;;;;5075862;28;20048;-81
2022/03/13 08:47:25;;;;;;;17.88;10.65;;;9.10;99.90;;;;;;5094804;28;20452;-80
2022/03/13 08:49:51;;;;;;;20.42;11.73;;;9.30;99.90;;;;;;5085592;28;20036;-80
2022/03/13 08:52:17;;;;;;;16.98;12.25;;;9.60;99.90;;;;;;5084404;28;20040;-80
2022/03/13 08:54:42;;;;;;;25.33;12.98;;;9.70;99.90;;;;;;5079526;28;20048;-81
2022/03/13 08:57:08;;;;;;;17.77;12.68;;;9.90;99.90;;;;;;5074408;28;20043;-79
2022/03/13 08:59:36;;;;;;;17.77;12.10;;;10.00;99.90;;;;;;5072625;28;20102;-80
2022/03/13 09:02:03;;;;;;;15.30;10.93;;;10.00;99.90;;;;;;5074577;28;20041;-79
2022/03/13 09:04:29;;;;;;;16.48;12.48;;;10.30;99.90;;;;;;5073843;28;20079;-78
2022/03/13 09:06:56;;;;;;;13.27;9.70;;;10.50;99.90;;;;;;5072308;28;20040;-80
2022/03/13 09:09:22;;;;;;;16.45;12.38;;;10.30;99.90;;;;;;5074511;28;20051;-81
2022/03/13 09:11:50;;;;;;;18.42;12.30;;;10.40;99.90;;;;;;5075405;28;20406;-79
2022/03/13 09:14:17;;;;;;;14.35;11.18;;;10.60;99.90;;;;;;5070981;28;20453;-79
2022/03/13 09:16:43;;;;;;;15.35;12.43;;;10.40;99.90;;;;;;5055885;28;20040;-81
2022/03/13 09:19:09;;;;;;;19.55;13.50;;;10.40;99.90;;;;;;5066279;28;20532;-81
2022/03/13 09:21:38;;;;;;;15.80;11.45;;;10.50;99.90;;;;;;5058077;28;20040;-77
2022/03/13 09:24:08;;;;;;;16.38;11.82;;;10.60;99.90;;;;;;5054865;28;20467;-80
2022/03/13 09:26:35;;;;;;;15.88;11.50;;;10.80;99.90;;;;;;5072442;28;20047;-80
2022/03/13 09:29:02;;;;;;;17.55;12.65;;;10.90;99.90;;;;;;5072514;28;20498;-82
2022/03/13 09:31:28;;;;;;;15.00;11.73;;;10.90;99.90;;;;;;5072745;28;20045;-81
2022/03/13 09:33:53;;;;;;;15.90;11.57;;;10.90;99.90;;;;;;5054482;28;20471;-80
2022/03/13 09:36:19;;;;;;;15.65;12.05;;;10.90;99.90;;;;;;5062885;28;20050;-81
2022/03/13 09:38:45;;;;;;;16.75;12.68;;;11.00;99.90;;;;;;5064873;28;20040;-78
2022/03/13 09:41:11;;;;;;;12.93;10.48;;;11.20;99.90;;;;;;5070606;28;20037;-79
2022/03/13 09:43:37;;;;;;;16.40;12.05;;;11.20;99.90;;;;;;5072109;28;20044;-80
2022/03/13 09:46:03;;;;;;;18.23;12.48;;;11.10;99.90;;;;;;5057890;28;20044;-80
2022/03/13 09:48:29;;;;;;;14.43;11.85;;;11.20;99.90;;;;;;5061842;28;20044;-83
2022/03/13 09:50:56;;;;;;;14.60;11.40;;;11.40;99.90;;;;;;5065890;28;20513;-81
2022/03/13 09:53:22;;;;;;;19.00;12.35;;;11.40;99.90;;;;;;5065430;28;20037;-82
2022/03/13 09:55:48;;;;;;;14.55;11.77;;;11.50;99.90;;;;;;5070957;28;20127;-83
2022/03/13 09:58:14;;;;;;;15.50;12.00;;;11.60;99.90;;;;;;5055782;28;20175;-81
2022/03/13 10:00:39;;;;;;;17.60;11.75;;;11.60;99.90;;;;;;5061957;28;20041;-84
2022/03/13 10:03:11;;;;;;;17.17;12.10;;;11.70;99.90;;;;;;5083120;28;20025;-82
2022/03/13 10:05:47;;;;;;;18.23;11.38;;;11.90;99.90;;;;;;5071528;28;20151;-81
2022/03/13 10:08:15;;;;;;;16.52;12.02;;;11.70;99.90;;;;;;5071150;28;20407;-84
2022/03/13 10:10:48;;;;;;;15.50;12.07;;;11.70;99.90;;;;;;5070428;28;20514;-80
2022/03/13 10:13:32;;;;;;;17.70;10.75;;;11.90;99.90;;;;;;5062461;28;20029;-82
2022/03/13 10:15:57;;;;;;;16.52;11.70;;;11.90;99.90;;;;;;5070579;28;20053;-76
2022/03/13 10:18:25;;;;;;;15.57;10.63;;;12.00;99.90;;;;;;5071498;28;20068;-78
2022/03/13 10:20:52;;;;;;;15.90;11.32;;;12.10;99.90;;;;;;5069833;28;20047;-77
2022/03/13 10:23:22;;;;;;;15.55;11.55;;;12.20;99.90;;;;;;5070213;28;20502;-79
2022/03/13 10:25:49;;;;;;;14.05;11.13;;;12.00;99.90;;;;;;5070374;28;20041;-80
2022/03/13 10:28:44;;;;;;;14.95;11.13;;;12.20;99.90;;;;;;5070808;28;20577;-79
2022/03/13 10:31:16;;;;;;;15.35;12.00;;;12.30;99.90;;;;;;5044522;28;20383;-77
2022/03/13 10:33:42;;;;;;;14.98;12.40;;;12.40;99.90;;;;;;5050745;28;20040;-80
2022/03/13 10:36:11;;;;;;;18.58;11.20;;;12.40;99.90;;;;;;5051334;28;20052;-85
2022/03/13 10:38:38;;;;;;;16.98;13.40;;;12.40;99.90;;;;;;5063047;28;20040;-84
2022/03/13 10:41:08;;;;;;;14.23;11.10;;;12.60;99.90;;;;;;5074391;28;20494;-84
2022/03/13 10:43:37;;;;;;;13.90;11.52;;;12.90;99.90;;;;;;5071333;28;20045;-85
2022/03/13 10:46:04;;;;;;;19.67;12.65;;;12.70;99.90;;;;;;5067884;28;20047;-85
2022/03/13 10:48:33;;;;;;;19.08;13.95;;;12.80;99.90;;;;;;5071692;28;20052;-86
2022/03/13 10:51:02;;;;;;;16.50;13.13;;;12.90;99.90;;;;;;5070506;28;20068;-86
2022/03/13 10:53:28;;;;;;;15.18;11.32;;;13.00;99.90;;;;;;5069379;28;20051;-84
2022/03/13 10:56:03;;;;;;;16.75;12.45;;;13.00;99.90;;;;;;5072299;28;20041;-85
2022/03/13 10:58:31;;;;;;;19.73;12.93;;;12.90;99.90;;;;;;5072111;28;20040;-85
2022/03/13 11:01:04;;;;;;;18.38;12.35;;;13.00;99.90;;;;;;5068299;28;20040;-86
2022/03/13 11:03:31;;;;;;;18.10;13.18;;;13.00;99.90;;;;;;5064217;28;20048;-85
2022/03/13 11:05:56;;;;;;;19.25;13.10;;;13.00;99.90;;;;;;5069310;28;20048;-85
2022/03/13 11:08:22;;;;;;;15.27;12.27;;;13.10;99.90;;;;;;5053713;28;20045;-84
2022/03/13 11:10:50;;;;;;;18.23;13.50;;;13.10;99.90;;;;;;5071142;28;20037;-87
2022/03/13 11:13:16;;;;;;;17.23;13.25;;;13.10;99.90;;;;;;5069622;28;20159;-86
2022/03/13 11:15:44;;;;;;;19.00;11.80;;;13.20;99.90;;;;;;5073778;28;20512;-87
2022/03/13 11:18:17;;;;;;;16.58;12.35;;;13.30;99.90;;;;;;5076306;28;20090;-86
2022/03/13 11:20:43;;;;;;;16.43;12.83;;;13.50;99.90;;;;;;5085523;28;20036;-83
2022/03/13 11:23:09;;;;;;;31.05;13.60;;;13.50;99.90;;;;;;5078350;28;20040;-87
2022/03/13 11:25:38;;;;;;;15.48;12.52;;;13.50;99.90;;;;;;5078241;28;20120;-86
2022/03/13 11:28:05;;;;;;;18.65;13.88;;;13.50;99.90;;;;;;5084686;28;20119;-86
2022/03/13 11:30:34;;;;;;;16.45;10.90;;;13.50;99.90;;;;;;5080409;28;20037;-84
2022/03/13 11:33:01;;;;;;;15.25;11.45;;;13.40;99.90;;;;;;5089066;28;20044;-83
2022/03/13 11:35:30;;;;;;;16.17;12.43;;;13.50;99.90;;;;;;5086064;28;20037;-83
2022/03/13 11:38:17;;;;;;;20.08;13.50;;;13.60;99.90;;;;;;5072624;28;20032;-79
2022/03/13 11:40:43;;;;;;;16.42;13.48;;;13.90;99.90;;;;;;5071177;28;20087;-85
2022/03/13 11:43:20;;;;;;;18.35;13.15;;;14.20;99.90;;;;;;5082869;28;20036;-86
2022/03/13 11:46:00;;;;;;;19.48;14.32;;;13.90;99.90;;;;;;5080985;28;20076;-84
2022/03/13 11:48:25;;;;;;;16.08;12.82;;;14.00;99.90;;;;;;5068953;28;20068;-79
2022/03/13 11:50:56;;;;;;;19.10;13.80;;;13.90;99.90;;;;;;5073689;28;20506;-83
2022/03/13 11:53:28;;;;;;;16.70;13.05;;;14.00;99.90;;;;;;5077852;28;20044;-86
2022/03/13 11:56:00;;;;;;;19.55;12.93;;;14.20;99.90;;;;;;5079376;28;20045;-85
2022/03/13 11:58:46;;;;;;;19.02;13.80;;;14.30;99.90;;;;;;5070789;28;20052;-78
2022/03/13 12:01:20;;;;;;;16.25;13.48;;;14.30;99.90;;;;;;5055608;28;20495;-85
2022/03/13 12:04:04;;;;;;;14.32;11.35;;;14.40;99.90;;;;;;5053712;28;20041;-82
2022/03/13 12:06:43;;;;;;;17.52;13.88;;;14.40;99.90;;;;;;5053219;28;20083;-82
2022/03/13 12:09:09;;;;;;;17.07;12.90;;;14.30;99.90;;;;;;5059324;28;20055;-82
2022/03/13 12:11:39;;;;;;;18.42;11.88;;;14.10;99.90;;;;;;5057333;28;20123;-84
2022/03/13 12:14:07;;;;;;;18.38;11.18;;;14.10;99.90;;;;;;5058652;28;20037;-85
2022/03/13 12:16:37;;;;;;;17.45;12.50;;;14.10;99.90;;;;;;5052117;28;20038;-85
2022/03/13 12:19:03;;;;;;;15.73;11.87;;;14.40;99.90;;;;;;5056742;28;20426;-84
2022/03/13 12:21:29;;;;;;;17.38;11.52;;;14.50;99.90;;;;;;5053294;28;20041;-85
2022/03/13 12:23:58;;;;;;;15.80;11.88;;;14.90;99.90;;;;;;5056445;28;20502;-76
2022/03/13 12:26:38;;;;;;;18.40;11.65;;;14.90;99.90;;;;;;5061811;28;20403;-83
2022/03/13 12:29:04;;;;;;;18.60;11.35;;;14.80;99.90;;;;;;5077218;28;20052;-86
2022/03/13 12:31:39;;;;;;;13.93;10.15;;;14.80;99.90;;;;;;5070863;28;20057;-84
2022/03/13 12:34:04;;;;;;;17.45;11.98;;;14.60;99.90;;;;;;5055141;28;20065;-84